sensor_id;sensor_type;location;lat;lon;timestamp;P1;durP1;ratioP1;P2;durP2;ratioP2
8297;SDS011;4187;42.778;23.242;2022-12-19T00:01:09;20.23;;;13.40;;
8297;SDS011;4187;42.778;23.242;2022-12-19T00:03:41;20.87;;;14.87;;
8297;SDS011;4187;42.778;23.242;2022-12-19T00:06:08;20.40;;;13.83;;
8297;SDS011;4187;42.778;23.242;2022-12-19T00:08:35;19.17;;;12.67;;
8297;SDS011;4187;42.778;23.242;2022-12-19T00:11:02;20.83;;;14.40;;
8297;SDS011;4187;42.778;23.242;2022-12-19T00:13:29;21.63;;;13.03;;
8297;SDS011;4187;42.778;23.242;2022-12-19T00:15:59;22.37;;;14.40;;
8297;SDS011;4187;42.778;23.242;2022-12-19T00:18:27;20.87;;;14.97;;
8297;SDS011;4187;42.778;23.242;2022-12-19T00:20:55;20.23;;;14.13;;
8297;SDS011;4187;42.778;23.242;2022-12-19T00:23:24;22.37;;;14.13;;
8297;SDS011;4187;42.778;23.242;2022-12-19T00:25:51;22.77;;;14.90;;
8297;SDS011;4187;42.778;23.242;2022-12-19T00:28:18;23.90;;;15.33;;
8297;SDS011;4187;42.778;23.242;2022-12-19T00:30:45;20.53;;;14.27;;
8297;SDS011;4187;42.778;23.242;2022-12-19T00:33:11;20.87;;;14.77;;
8297;SDS011;4187;42.778;23.242;2022-12-19T00:35:40;20.37;;;14.63;;
8297;SDS011;4187;42.778;23.242;2022-12-19T00:38:06;21.97;;;14.17;;
8297;SDS011;4187;42.778;23.242;2022-12-19T00:40:33;24.10;;;15.13;;
8297;SDS011;4187;42.778;23.242;2022-12-19T00:43:00;22.77;;;15.33;;
8297;SDS011;4187;42.778;23.242;2022-12-19T00:45:27;23.20;;;14.27;;
8297;SDS011;4187;42.778;23.242;2022-12-19T00:47:54;19.17;;;13.73;;
8297;SDS011;4187;42.778;23.242;2022-12-19T00:50:20;19.93;;;13.50;;
8297;SDS011;4187;42.778;23.242;2022-12-19T00:52:49;23.00;;;15.03;;
8297;SDS011;4187;42.778;23.242;2022-12-19T00:55:15;20.87;;;13.53;;
8297;SDS011;4187;42.778;23.242;2022-12-19T00:57:42;20.80;;;13.60;;
8297;SDS011;4187;42.778;23.242;2022-12-19T01:00:09;19.67;;;13.97;;
8297;SDS011;4187;42.778;23.242;2022-12-19T01:02:37;19.43;;;13.57;;
8297;SDS011;4187;42.778;23.242;2022-12-19T01:05:04;19.83;;;13.93;;
8297;SDS011;4187;42.778;23.242;2022-12-19T01:07:31;19.83;;;14.20;;
8297;SDS011;4187;42.778;23.242;2022-12-19T01:09:59;17.87;;;12.90;;
8297;SDS011;4187;42.778;23.242;2022-12-19T01:12:26;20.87;;;14.50;;
8297;SDS011;4187;42.778;23.242;2022-12-19T01:15:11;21.83;;;14.00;;
8297;SDS011;4187;42.778;23.242;2022-12-19T01:17:39;21.07;;;14.77;;
8297;SDS011;4187;42.778;23.242;2022-12-19T01:20:06;20.60;;;13.83;;
8297;SDS011;4187;42.778;23.242;2022-12-19T01:22:34;23.27;;;15.17;;
8297;SDS011;4187;42.778;23.242;2022-12-19T01:25:02;25.90;;;15.27;;
8297;SDS011;4187;42.778;23.242;2022-12-19T01:27:30;22.57;;;15.10;;
8297;SDS011;4187;42.778;23.242;2022-12-19T01:29:56;22.70;;;16.33;;
8297;SDS011;4187;42.778;23.242;2022-12-19T01:32:23;19.83;;;14.30;;
8297;SDS011;4187;42.778;23.242;2022-12-19T01:34:50;23.27;;;14.93;;
8297;SDS011;4187;42.778;23.242;2022-12-19T01:37:17;21.43;;;13.93;;
8297;SDS011;4187;42.778;23.242;2022-12-19T01:39:45;22.13;;;14.20;;
8297;SDS011;4187;42.778;23.242;2022-12-19T01:42:17;22.27;;;14.17;;
8297;SDS011;4187;42.778;23.242;2022-12-19T01:45:04;20.57;;;14.37;;
8297;SDS011;4187;42.778;23.242;2022-12-19T01:47:50;23.13;;;15.17;;
8297;SDS011;4187;42.778;23.242;2022-12-19T01:50:22;22.43;;;14.33;;
8297;SDS011;4187;42.778;23.242;2022-12-19T01:52:52;21.10;;;13.67;;
8297;SDS011;4187;42.778;23.242;2022-12-19T01:55:20;20.53;;;13.10;;
8297;SDS011;4187;42.778;23.242;2022-12-19T01:57:49;18.33;;;12.50;;
8297;SDS011;4187;42.778;23.242;2022-12-19T02:00:16;18.20;;;13.03;;
8297;SDS011;4187;42.778;23.242;2022-12-19T02:02:44;20.13;;;13.23;;
8297;SDS011;4187;42.778;23.242;2022-12-19T02:05:15;23.17;;;15.53;;
8297;SDS011;4187;42.778;23.242;2022-12-19T02:07:42;31.63;;;19.63;;
8297;SDS011;4187;42.778;23.242;2022-12-19T02:10:10;43.27;;;25.60;;
8297;SDS011;4187;42.778;23.242;2022-12-19T02:12:38;32.23;;;20.23;;
8297;SDS011;4187;42.778;23.242;2022-12-19T02:15:09;32.37;;;20.30;;
8297;SDS011;4187;42.778;23.242;2022-12-19T02:17:41;28.10;;;19.13;;
8297;SDS011;4187;42.778;23.242;2022-12-19T02:20:31;23.43;;;15.63;;
8297;SDS011;4187;42.778;23.242;2022-12-19T02:23:23;22.27;;;14.73;;
8297;SDS011;4187;42.778;23.242;2022-12-19T02:26:13;23.40;;;15.47;;
8297;SDS011;4187;42.778;23.242;2022-12-19T02:29:01;24.37;;;14.60;;
8297;SDS011;4187;42.778;23.242;2022-12-19T02:31:48;21.57;;;13.47;;
8297;SDS011;4187;42.778;23.242;2022-12-19T02:34:20;21.70;;;14.13;;
8297;SDS011;4187;42.778;23.242;2022-12-19T02:36:54;23.33;;;15.07;;
8297;SDS011;4187;42.778;23.242;2022-12-19T02:39:28;20.67;;;13.87;;
8297;SDS011;4187;42.778;23.242;2022-12-19T02:41:59;27.10;;;16.00;;
8297;SDS011;4187;42.778;23.242;2022-12-19T02:44:30;23.33;;;15.00;;
8297;SDS011;4187;42.778;23.242;2022-12-19T02:47:02;21.93;;;14.87;;
8297;SDS011;4187;42.778;23.242;2022-12-19T02:49:31;23.47;;;16.03;;
8297;SDS011;4187;42.778;23.242;2022-12-19T02:52:07;28.50;;;17.93;;
8297;SDS011;4187;42.778;23.242;2022-12-19T02:54:35;25.20;;;15.07;;
8297;SDS011;4187;42.778;23.242;2022-12-19T02:57:04;22.63;;;15.43;;
8297;SDS011;4187;42.778;23.242;2022-12-19T02:59:41;23.30;;;14.47;;
8297;SDS011;4187;42.778;23.242;2022-12-19T03:02:20;20.73;;;14.87;;
8297;SDS011;4187;42.778;23.242;2022-12-19T03:04:56;22.47;;;14.30;;
8297;SDS011;4187;42.778;23.242;2022-12-19T03:07:28;20.87;;;13.50;;
8297;SDS011;4187;42.778;23.242;2022-12-19T03:10:02;21.27;;;14.07;;
8297;SDS011;4187;42.778;23.242;2022-12-19T03:12:44;19.17;;;13.47;;
8297;SDS011;4187;42.778;23.242;2022-12-19T03:15:15;20.17;;;13.90;;
8297;SDS011;4187;42.778;23.242;2022-12-19T03:17:44;22.00;;;14.80;;
8297;SDS011;4187;42.778;23.242;2022-12-19T03:20:13;20.77;;;15.93;;
8297;SDS011;4187;42.778;23.242;2022-12-19T03:22:49;21.07;;;14.30;;
8297;SDS011;4187;42.778;23.242;2022-12-19T03:25:17;23.80;;;15.53;;
8297;SDS011;4187;42.778;23.242;2022-12-19T03:27:45;23.03;;;15.57;;
8297;SDS011;4187;42.778;23.242;2022-12-19T03:30:14;22.77;;;15.27;;
8297;SDS011;4187;42.778;23.242;2022-12-19T03:32:42;21.87;;;13.97;;
8297;SDS011;4187;42.778;23.242;2022-12-19T03:35:14;25.53;;;15.67;;
8297;SDS011;4187;42.778;23.242;2022-12-19T03:37:44;21.27;;;13.87;;
8297;SDS011;4187;42.778;23.242;2022-12-19T03:40:13;25.20;;;14.47;;
8297;SDS011;4187;42.778;23.242;2022-12-19T03:42:43;25.13;;;16.37;;
8297;SDS011;4187;42.778;23.242;2022-12-19T03:45:30;26.30;;;18.00;;
8297;SDS011;4187;42.778;23.242;2022-12-19T03:48:04;26.67;;;16.30;;
8297;SDS011;4187;42.778;23.242;2022-12-19T03:50:36;21.50;;;15.40;;
8297;SDS011;4187;42.778;23.242;2022-12-19T03:53:14;20.67;;;14.50;;
8297;SDS011;4187;42.778;23.242;2022-12-19T03:55:56;24.43;;;15.93;;
8297;SDS011;4187;42.778;23.242;2022-12-19T03:58:30;24.43;;;16.80;;
8297;SDS011;4187;42.778;23.242;2022-12-19T04:00:59;24.37;;;16.80;;
8297;SDS011;4187;42.778;23.242;2022-12-19T04:03:30;23.83;;;16.07;;
8297;SDS011;4187;42.778;23.242;2022-12-19T04:05:58;25.93;;;17.03;;
8297;SDS011;4187;42.778;23.242;2022-12-19T04:08:27;27.67;;;17.83;;
8297;SDS011;4187;42.778;23.242;2022-12-19T04:11:00;28.57;;;18.60;;
8297;SDS011;4187;42.778;23.242;2022-12-19T04:13:32;28.43;;;18.87;;
8297;SDS011;4187;42.778;23.242;2022-12-19T04:16:05;25.33;;;16.53;;
8297;SDS011;4187;42.778;23.242;2022-12-19T04:18:40;28.13;;;18.17;;
8297;SDS011;4187;42.778;23.242;2022-12-19T04:21:11;32.80;;;18.50;;
8297;SDS011;4187;42.778;23.242;2022-12-19T04:23:45;45.23;;;26.40;;
8297;SDS011;4187;42.778;23.242;2022-12-19T04:26:16;46.50;;;27.00;;
8297;SDS011;4187;42.778;23.242;2022-12-19T04:28:46;44.70;;;25.50;;
8297;SDS011;4187;42.778;23.242;2022-12-19T04:31:15;49.03;;;25.97;;
8297;SDS011;4187;42.778;23.242;2022-12-19T04:33:46;38.53;;;22.47;;
8297;SDS011;4187;42.778;23.242;2022-12-19T04:36:13;32.50;;;17.87;;
8297;SDS011;4187;42.778;23.242;2022-12-19T04:38:40;31.17;;;17.93;;
8297;SDS011;4187;42.778;23.242;2022-12-19T04:41:07;32.03;;;17.17;;
8297;SDS011;4187;42.778;23.242;2022-12-19T04:43:33;33.10;;;18.63;;
8297;SDS011;4187;42.778;23.242;2022-12-19T04:46:00;34.87;;;19.07;;
8297;SDS011;4187;42.778;23.242;2022-12-19T04:48:27;39.30;;;20.73;;
8297;SDS011;4187;42.778;23.242;2022-12-19T04:50:55;27.63;;;17.80;;
8297;SDS011;4187;42.778;23.242;2022-12-19T04:53:22;24.80;;;15.53;;
8297;SDS011;4187;42.778;23.242;2022-12-19T04:55:49;25.00;;;15.27;;
8297;SDS011;4187;42.778;23.242;2022-12-19T04:58:16;27.27;;;15.63;;
8297;SDS011;4187;42.778;23.242;2022-12-19T05:00:43;32.70;;;19.77;;
8297;SDS011;4187;42.778;23.242;2022-12-19T05:03:09;28.23;;;18.27;;
8297;SDS011;4187;42.778;23.242;2022-12-19T05:05:36;28.17;;;17.43;;
8297;SDS011;4187;42.778;23.242;2022-12-19T05:08:05;24.40;;;15.73;;
8297;SDS011;4187;42.778;23.242;2022-12-19T05:10:31;21.53;;;13.03;;
8297;SDS011;4187;42.778;23.242;2022-12-19T05:12:58;23.33;;;14.33;;
8297;SDS011;4187;42.778;23.242;2022-12-19T05:15:25;20.77;;;12.77;;
8297;SDS011;4187;42.778;23.242;2022-12-19T05:17:52;23.87;;;14.00;;
8297;SDS011;4187;42.778;23.242;2022-12-19T05:20:19;22.53;;;14.87;;
8297;SDS011;4187;42.778;23.242;2022-12-19T05:22:46;28.37;;;17.50;;
8297;SDS011;4187;42.778;23.242;2022-12-19T05:25:14;23.67;;;16.30;;
8297;SDS011;4187;42.778;23.242;2022-12-19T05:27:41;26.07;;;16.57;;
8297;SDS011;4187;42.778;23.242;2022-12-19T05:30:08;24.73;;;15.30;;
8297;SDS011;4187;42.778;23.242;2022-12-19T05:32:36;28.10;;;17.53;;
8297;SDS011;4187;42.778;23.242;2022-12-19T05:35:03;25.37;;;17.13;;
8297;SDS011;4187;42.778;23.242;2022-12-19T05:37:30;26.13;;;17.00;;
8297;SDS011;4187;42.778;23.242;2022-12-19T05:39:57;31.57;;;19.20;;
8297;SDS011;4187;42.778;23.242;2022-12-19T05:42:25;29.30;;;18.57;;
8297;SDS011;4187;42.778;23.242;2022-12-19T05:44:52;29.13;;;16.57;;
8297;SDS011;4187;42.778;23.242;2022-12-19T05:47:19;23.40;;;14.77;;
8297;SDS011;4187;42.778;23.242;2022-12-19T05:49:45;22.40;;;15.23;;
8297;SDS011;4187;42.778;23.242;2022-12-19T05:52:12;24.93;;;15.73;;
8297;SDS011;4187;42.778;23.242;2022-12-19T05:54:39;23.63;;;14.70;;
8297;SDS011;4187;42.778;23.242;2022-12-19T05:57:06;24.33;;;14.33;;
8297;SDS011;4187;42.778;23.242;2022-12-19T05:59:34;20.77;;;13.47;;
8297;SDS011;4187;42.778;23.242;2022-12-19T06:02:01;22.60;;;16.03;;
8297;SDS011;4187;42.778;23.242;2022-12-19T06:04:28;26.43;;;15.87;;
8297;SDS011;4187;42.778;23.242;2022-12-19T06:06:55;23.00;;;14.90;;
8297;SDS011;4187;42.778;23.242;2022-12-19T06:09:26;20.30;;;13.50;;
8297;SDS011;4187;42.778;23.242;2022-12-19T06:11:53;23.83;;;14.10;;
8297;SDS011;4187;42.778;23.242;2022-12-19T06:14:20;36.10;;;20.00;;
8297;SDS011;4187;42.778;23.242;2022-12-19T06:16:48;48.43;;;26.83;;
8297;SDS011;4187;42.778;23.242;2022-12-19T06:19:15;36.60;;;21.07;;
8297;SDS011;4187;42.778;23.242;2022-12-19T06:21:42;28.47;;;18.10;;
8297;SDS011;4187;42.778;23.242;2022-12-19T06:24:09;37.73;;;22.20;;
8297;SDS011;4187;42.778;23.242;2022-12-19T06:26:36;31.20;;;18.47;;
8297;SDS011;4187;42.778;23.242;2022-12-19T06:29:02;34.13;;;21.40;;
8297;SDS011;4187;42.778;23.242;2022-12-19T06:31:29;43.57;;;24.73;;
8297;SDS011;4187;42.778;23.242;2022-12-19T06:33:58;40.60;;;22.80;;
8297;SDS011;4187;42.778;23.242;2022-12-19T06:36:25;35.33;;;21.57;;
8297;SDS011;4187;42.778;23.242;2022-12-19T06:38:55;38.07;;;21.13;;
8297;SDS011;4187;42.778;23.242;2022-12-19T06:41:23;36.87;;;22.47;;
8297;SDS011;4187;42.778;23.242;2022-12-19T06:44:08;28.80;;;18.03;;
8297;SDS011;4187;42.778;23.242;2022-12-19T06:46:36;40.87;;;23.60;;
8297;SDS011;4187;42.778;23.242;2022-12-19T06:49:05;32.73;;;19.10;;
8297;SDS011;4187;42.778;23.242;2022-12-19T06:51:32;30.30;;;18.77;;
8297;SDS011;4187;42.778;23.242;2022-12-19T06:53:59;31.83;;;22.43;;
8297;SDS011;4187;42.778;23.242;2022-12-19T06:56:26;27.27;;;17.20;;
8297;SDS011;4187;42.778;23.242;2022-12-19T06:58:53;28.13;;;18.93;;
8297;SDS011;4187;42.778;23.242;2022-12-19T07:01:20;29.47;;;19.80;;
8297;SDS011;4187;42.778;23.242;2022-12-19T07:03:56;28.00;;;19.83;;
8297;SDS011;4187;42.778;23.242;2022-12-19T07:06:24;31.97;;;20.30;;
8297;SDS011;4187;42.778;23.242;2022-12-19T07:08:51;26.83;;;17.37;;
8297;SDS011;4187;42.778;23.242;2022-12-19T07:11:18;23.13;;;15.70;;
8297;SDS011;4187;42.778;23.242;2022-12-19T07:13:45;28.43;;;16.70;;
8297;SDS011;4187;42.778;23.242;2022-12-19T07:16:12;26.97;;;19.10;;
8297;SDS011;4187;42.778;23.242;2022-12-19T07:18:38;25.33;;;17.97;;
8297;SDS011;4187;42.778;23.242;2022-12-19T07:21:07;26.03;;;18.23;;
8297;SDS011;4187;42.778;23.242;2022-12-19T07:23:37;27.90;;;18.57;;
8297;SDS011;4187;42.778;23.242;2022-12-19T07:26:04;27.97;;;17.40;;
8297;SDS011;4187;42.778;23.242;2022-12-19T07:28:32;26.20;;;17.43;;
8297;SDS011;4187;42.778;23.242;2022-12-19T07:31:00;29.60;;;17.93;;
8297;SDS011;4187;42.778;23.242;2022-12-19T07:33:27;27.40;;;16.73;;
8297;SDS011;4187;42.778;23.242;2022-12-19T07:35:54;31.13;;;18.17;;
8297;SDS011;4187;42.778;23.242;2022-12-19T07:38:21;30.13;;;18.73;;
8297;SDS011;4187;42.778;23.242;2022-12-19T07:40:49;30.30;;;17.93;;
8297;SDS011;4187;42.778;23.242;2022-12-19T07:43:16;26.00;;;17.37;;
8297;SDS011;4187;42.778;23.242;2022-12-19T07:45:42;29.03;;;18.87;;
8297;SDS011;4187;42.778;23.242;2022-12-19T07:48:09;29.03;;;17.70;;
8297;SDS011;4187;42.778;23.242;2022-12-19T07:50:36;28.87;;;18.77;;
8297;SDS011;4187;42.778;23.242;2022-12-19T07:53:03;42.23;;;21.10;;
8297;SDS011;4187;42.778;23.242;2022-12-19T07:55:29;36.53;;;22.23;;
8297;SDS011;4187;42.778;23.242;2022-12-19T07:57:59;46.43;;;28.70;;
8297;SDS011;4187;42.778;23.242;2022-12-19T08:00:26;35.53;;;20.50;;
8297;SDS011;4187;42.778;23.242;2022-12-19T08:02:52;33.87;;;20.07;;
8297;SDS011;4187;42.778;23.242;2022-12-19T08:05:19;30.83;;;19.50;;
8297;SDS011;4187;42.778;23.242;2022-12-19T08:07:46;28.43;;;17.20;;
8297;SDS011;4187;42.778;23.242;2022-12-19T08:10:13;28.63;;;17.93;;
8297;SDS011;4187;42.778;23.242;2022-12-19T08:12:40;27.90;;;16.50;;
8297;SDS011;4187;42.778;23.242;2022-12-19T08:15:09;29.73;;;18.27;;
8297;SDS011;4187;42.778;23.242;2022-12-19T08:17:36;23.73;;;16.77;;
8297;SDS011;4187;42.778;23.242;2022-12-19T08:20:04;21.07;;;14.40;;
8297;SDS011;4187;42.778;23.242;2022-12-19T08:22:32;26.53;;;16.50;;
8297;SDS011;4187;42.778;23.242;2022-12-19T08:24:59;24.73;;;16.37;;
8297;SDS011;4187;42.778;23.242;2022-12-19T08:27:25;26.07;;;16.00;;
8297;SDS011;4187;42.778;23.242;2022-12-19T08:29:54;24.93;;;17.33;;
8297;SDS011;4187;42.778;23.242;2022-12-19T08:32:23;27.83;;;18.10;;
8297;SDS011;4187;42.778;23.242;2022-12-19T08:34:50;26.03;;;16.23;;
8297;SDS011;4187;42.778;23.242;2022-12-19T08:37:18;27.17;;;16.67;;
8297;SDS011;4187;42.778;23.242;2022-12-19T08:39:45;28.23;;;18.67;;
8297;SDS011;4187;42.778;23.242;2022-12-19T08:42:12;28.20;;;17.93;;
8297;SDS011;4187;42.778;23.242;2022-12-19T08:44:39;28.13;;;18.80;;
8297;SDS011;4187;42.778;23.242;2022-12-19T08:47:06;30.63;;;17.97;;
8297;SDS011;4187;42.778;23.242;2022-12-19T08:49:35;25.93;;;16.03;;
8297;SDS011;4187;42.778;23.242;2022-12-19T08:52:02;26.50;;;18.03;;
8297;SDS011;4187;42.778;23.242;2022-12-19T08:54:29;30.07;;;18.73;;
8297;SDS011;4187;42.778;23.242;2022-12-19T08:56:55;33.93;;;18.77;;
8297;SDS011;4187;42.778;23.242;2022-12-19T08:59:23;36.03;;;20.47;;
8297;SDS011;4187;42.778;23.242;2022-12-19T09:01:49;29.27;;;19.67;;
8297;SDS011;4187;42.778;23.242;2022-12-19T09:04:16;32.40;;;21.63;;
8297;SDS011;4187;42.778;23.242;2022-12-19T09:06:45;58.07;;;26.13;;
8297;SDS011;4187;42.778;23.242;2022-12-19T09:09:11;62.00;;;30.30;;
8297;SDS011;4187;42.778;23.242;2022-12-19T09:11:38;26.90;;;18.73;;
8297;SDS011;4187;42.778;23.242;2022-12-19T09:14:05;28.47;;;19.07;;
8297;SDS011;4187;42.778;23.242;2022-12-19T09:16:32;27.47;;;18.27;;
8297;SDS011;4187;42.778;23.242;2022-12-19T09:18:59;26.80;;;18.57;;
8297;SDS011;4187;42.778;23.242;2022-12-19T09:21:27;28.57;;;17.73;;
8297;SDS011;4187;42.778;23.242;2022-12-19T09:23:56;27.13;;;17.17;;
8297;SDS011;4187;42.778;23.242;2022-12-19T09:26:25;25.10;;;17.20;;
8297;SDS011;4187;42.778;23.242;2022-12-19T09:28:52;26.53;;;17.00;;
8297;SDS011;4187;42.778;23.242;2022-12-19T09:31:20;28.70;;;17.57;;
8297;SDS011;4187;42.778;23.242;2022-12-19T09:33:49;28.27;;;17.43;;
8297;SDS011;4187;42.778;23.242;2022-12-19T09:36:17;24.87;;;15.90;;
8297;SDS011;4187;42.778;23.242;2022-12-19T09:38:46;28.63;;;18.20;;
8297;SDS011;4187;42.778;23.242;2022-12-19T09:41:22;30.07;;;19.53;;
8297;SDS011;4187;42.778;23.242;2022-12-19T09:44:10;32.27;;;20.40;;
8297;SDS011;4187;42.778;23.242;2022-12-19T09:46:49;42.17;;;28.37;;
8297;SDS011;4187;42.778;23.242;2022-12-19T09:49:20;34.80;;;23.50;;
8297;SDS011;4187;42.778;23.242;2022-12-19T09:51:52;33.17;;;21.30;;
8297;SDS011;4187;42.778;23.242;2022-12-19T09:54:25;39.40;;;25.53;;
8297;SDS011;4187;42.778;23.242;2022-12-19T09:57:00;35.07;;;22.03;;
8297;SDS011;4187;42.778;23.242;2022-12-19T09:59:30;31.80;;;21.80;;
8297;SDS011;4187;42.778;23.242;2022-12-19T10:02:03;31.07;;;20.83;;
8297;SDS011;4187;42.778;23.242;2022-12-19T10:04:56;34.60;;;21.93;;
8297;SDS011;4187;42.778;23.242;2022-12-19T10:07:29;42.07;;;23.13;;
8297;SDS011;4187;42.778;23.242;2022-12-19T10:09:55;32.87;;;22.33;;
8297;SDS011;4187;42.778;23.242;2022-12-19T10:12:28;42.97;;;23.07;;
8297;SDS011;4187;42.778;23.242;2022-12-19T10:15:12;41.30;;;27.60;;
8297;SDS011;4187;42.778;23.242;2022-12-19T10:17:52;42.40;;;28.60;;
8297;SDS011;4187;42.778;23.242;2022-12-19T10:20:31;46.27;;;29.83;;
8297;SDS011;4187;42.778;23.242;2022-12-19T10:23:06;41.37;;;29.77;;
8297;SDS011;4187;42.778;23.242;2022-12-19T10:25:49;41.30;;;25.93;;
8297;SDS011;4187;42.778;23.242;2022-12-19T10:28:26;37.97;;;25.77;;
8297;SDS011;4187;42.778;23.242;2022-12-19T10:31:09;52.57;;;32.77;;
8297;SDS011;4187;42.778;23.242;2022-12-19T10:33:41;36.83;;;24.63;;
8297;SDS011;4187;42.778;23.242;2022-12-19T10:36:12;36.33;;;24.60;;
8297;SDS011;4187;42.778;23.242;2022-12-19T10:38:42;49.13;;;40.93;;
8297;SDS011;4187;42.778;23.242;2022-12-19T10:41:15;45.30;;;34.27;;
8297;SDS011;4187;42.778;23.242;2022-12-19T10:43:49;47.30;;;35.67;;
8297;SDS011;4187;42.778;23.242;2022-12-19T10:46:24;52.93;;;40.77;;
8297;SDS011;4187;42.778;23.242;2022-12-19T10:49:01;46.40;;;34.83;;
8297;SDS011;4187;42.778;23.242;2022-12-19T10:51:37;41.40;;;34.67;;
8297;SDS011;4187;42.778;23.242;2022-12-19T10:54:04;26.67;;;19.00;;
8297;SDS011;4187;42.778;23.242;2022-12-19T10:56:32;22.10;;;16.00;;
8297;SDS011;4187;42.778;23.242;2022-12-19T10:59:00;23.43;;;16.70;;
8297;SDS011;4187;42.778;23.242;2022-12-19T11:01:27;28.23;;;17.80;;
8297;SDS011;4187;42.778;23.242;2022-12-19T11:04:11;28.50;;;17.90;;
8297;SDS011;4187;42.778;23.242;2022-12-19T11:06:47;28.47;;;19.13;;
8297;SDS011;4187;42.778;23.242;2022-12-19T11:09:20;29.13;;;18.10;;
8297;SDS011;4187;42.778;23.242;2022-12-19T11:11:57;29.53;;;19.10;;
8297;SDS011;4187;42.778;23.242;2022-12-19T11:14:29;25.70;;;17.80;;
8297;SDS011;4187;42.778;23.242;2022-12-19T11:16:57;23.80;;;16.30;;
8297;SDS011;4187;42.778;23.242;2022-12-19T11:19:25;25.30;;;18.80;;
8297;SDS011;4187;42.778;23.242;2022-12-19T11:21:55;26.03;;;17.47;;
8297;SDS011;4187;42.778;23.242;2022-12-19T11:24:26;26.03;;;17.20;;
8297;SDS011;4187;42.778;23.242;2022-12-19T11:26:56;22.93;;;16.07;;
8297;SDS011;4187;42.778;23.242;2022-12-19T11:29:24;21.17;;;15.13;;
8297;SDS011;4187;42.778;23.242;2022-12-19T11:31:55;25.53;;;16.13;;
8297;SDS011;4187;42.778;23.242;2022-12-19T11:34:25;21.80;;;15.40;;
8297;SDS011;4187;42.778;23.242;2022-12-19T11:36:55;26.40;;;17.80;;
8297;SDS011;4187;42.778;23.242;2022-12-19T11:39:31;31.17;;;20.33;;
8297;SDS011;4187;42.778;23.242;2022-12-19T11:42:02;27.87;;;18.83;;
8297;SDS011;4187;42.778;23.242;2022-12-19T11:44:35;26.53;;;18.23;;
8297;SDS011;4187;42.778;23.242;2022-12-19T11:47:10;21.47;;;15.00;;
8297;SDS011;4187;42.778;23.242;2022-12-19T11:49:46;24.37;;;15.03;;
8297;SDS011;4187;42.778;23.242;2022-12-19T11:52:21;21.90;;;14.40;;
8297;SDS011;4187;42.778;23.242;2022-12-19T11:54:59;19.73;;;14.17;;
8297;SDS011;4187;42.778;23.242;2022-12-19T11:57:31;20.63;;;13.80;;
8297;SDS011;4187;42.778;23.242;2022-12-19T11:59:58;23.90;;;15.60;;
8297;SDS011;4187;42.778;23.242;2022-12-19T12:02:41;24.47;;;15.53;;
8297;SDS011;4187;42.778;23.242;2022-12-19T12:05:39;22.60;;;14.60;;
8297;SDS011;4187;42.778;23.242;2022-12-19T12:08:29;21.37;;;15.57;;
8297;SDS011;4187;42.778;23.242;2022-12-19T12:11:07;21.17;;;14.37;;
8297;SDS011;4187;42.778;23.242;2022-12-19T12:13:50;19.57;;;12.80;;
8297;SDS011;4187;42.778;23.242;2022-12-19T12:16:32;16.63;;;11.90;;
8297;SDS011;4187;42.778;23.242;2022-12-19T12:19:13;13.20;;;9.50;;
8297;SDS011;4187;42.778;23.242;2022-12-19T12:21:54;13.93;;;9.90;;
8297;SDS011;4187;42.778;23.242;2022-12-19T12:24:31;13.33;;;9.70;;
8297;SDS011;4187;42.778;23.242;2022-12-19T12:27:15;14.47;;;10.70;;
8297;SDS011;4187;42.778;23.242;2022-12-19T12:29:53;12.97;;;9.10;;
8297;SDS011;4187;42.778;23.242;2022-12-19T12:32:32;13.30;;;10.00;;
8297;SDS011;4187;42.778;23.242;2022-12-19T12:35:16;12.73;;;8.83;;
8297;SDS011;4187;42.778;23.242;2022-12-19T12:37:54;12.47;;;9.93;;
8297;SDS011;4187;42.778;23.242;2022-12-19T12:43:23;11.90;;;8.87;;
8297;SDS011;4187;42.778;23.242;2022-12-19T12:46:00;16.33;;;10.23;;
8297;SDS011;4187;42.778;23.242;2022-12-19T12:48:30;15.57;;;10.07;;
8297;SDS011;4187;42.778;23.242;2022-12-19T12:51:04;19.90;;;11.53;;
8297;SDS011;4187;42.778;23.242;2022-12-19T12:53:34;17.40;;;10.77;;
8297;SDS011;4187;42.778;23.242;2022-12-19T12:56:06;14.83;;;10.50;;
8297;SDS011;4187;42.778;23.242;2022-12-19T12:58:42;16.73;;;10.10;;
8297;SDS011;4187;42.778;23.242;2022-12-19T13:01:31;22.27;;;11.83;;
8297;SDS011;4187;42.778;23.242;2022-12-19T13:04:02;16.60;;;11.43;;
8297;SDS011;4187;42.778;23.242;2022-12-19T13:06:33;20.23;;;14.00;;
8297;SDS011;4187;42.778;23.242;2022-12-19T13:09:02;18.47;;;12.30;;
8297;SDS011;4187;42.778;23.242;2022-12-19T13:11:44;18.17;;;12.50;;
8297;SDS011;4187;42.778;23.242;2022-12-19T13:14:41;16.17;;;12.90;;
8297;SDS011;4187;42.778;23.242;2022-12-19T13:17:10;14.63;;;10.73;;
8297;SDS011;4187;42.778;23.242;2022-12-19T13:19:38;13.93;;;10.37;;
8297;SDS011;4187;42.778;23.242;2022-12-19T13:22:21;16.33;;;11.13;;
8297;SDS011;4187;42.778;23.242;2022-12-19T13:28:12;13.97;;;9.57;;
8297;SDS011;4187;42.778;23.242;2022-12-19T13:36:53;15.93;;;10.70;;
8297;SDS011;4187;42.778;23.242;2022-12-19T13:39:29;13.33;;;9.63;;
8297;SDS011;4187;42.778;23.242;2022-12-19T13:42:00;14.70;;;10.97;;
8297;SDS011;4187;42.778;23.242;2022-12-19T13:44:55;16.87;;;10.87;;
8297;SDS011;4187;42.778;23.242;2022-12-19T13:47:26;26.33;;;12.10;;
8297;SDS011;4187;42.778;23.242;2022-12-19T13:49:57;19.10;;;11.37;;
8297;SDS011;4187;42.778;23.242;2022-12-19T13:52:26;18.80;;;11.60;;
8297;SDS011;4187;42.778;23.242;2022-12-19T13:54:56;17.77;;;11.07;;
8297;SDS011;4187;42.778;23.242;2022-12-19T13:57:24;15.17;;;10.00;;
8297;SDS011;4187;42.778;23.242;2022-12-19T13:59:54;16.70;;;11.80;;
8297;SDS011;4187;42.778;23.242;2022-12-19T14:02:25;15.10;;;10.77;;
8297;SDS011;4187;42.778;23.242;2022-12-19T14:04:55;18.60;;;10.93;;
8297;SDS011;4187;42.778;23.242;2022-12-19T14:07:25;17.87;;;11.93;;
8297;SDS011;4187;42.778;23.242;2022-12-19T14:09:59;14.27;;;10.73;;
8297;SDS011;4187;42.778;23.242;2022-12-19T14:12:27;17.47;;;11.90;;
8297;SDS011;4187;42.778;23.242;2022-12-19T14:15:22;20.00;;;12.10;;
8297;SDS011;4187;42.778;23.242;2022-12-19T14:17:51;15.80;;;11.30;;
8297;SDS011;4187;42.778;23.242;2022-12-19T14:20:18;17.43;;;11.70;;
8297;SDS011;4187;42.778;23.242;2022-12-19T14:22:46;16.40;;;11.50;;
8297;SDS011;4187;42.778;23.242;2022-12-19T14:25:15;15.93;;;11.80;;
8297;SDS011;4187;42.778;23.242;2022-12-19T14:27:42;19.87;;;11.90;;
8297;SDS011;4187;42.778;23.242;2022-12-19T14:30:16;19.33;;;12.67;;
8297;SDS011;4187;42.778;23.242;2022-12-19T14:32:45;18.93;;;14.10;;
8297;SDS011;4187;42.778;23.242;2022-12-19T14:35:15;19.87;;;14.40;;
8297;SDS011;4187;42.778;23.242;2022-12-19T14:37:45;20.00;;;12.70;;
8297;SDS011;4187;42.778;23.242;2022-12-19T14:40:20;22.87;;;16.23;;
8297;SDS011;4187;42.778;23.242;2022-12-19T14:42:49;22.67;;;14.50;;
8297;SDS011;4187;42.778;23.242;2022-12-19T14:45:35;33.60;;;20.57;;
8297;SDS011;4187;42.778;23.242;2022-12-19T14:51:00;41.43;;;18.77;;
8297;SDS011;4187;42.778;23.242;2022-12-19T14:53:29;45.57;;;26.57;;
8297;SDS011;4187;42.778;23.242;2022-12-19T14:56:02;61.23;;;30.80;;
8297;SDS011;4187;42.778;23.242;2022-12-19T14:58:32;54.80;;;25.53;;
8297;SDS011;4187;42.778;23.242;2022-12-19T15:01:01;68.37;;;30.43;;
8297;SDS011;4187;42.778;23.242;2022-12-19T15:03:30;91.97;;;34.07;;
8297;SDS011;4187;42.778;23.242;2022-12-19T15:06:04;104.23;;;38.13;;
8297;SDS011;4187;42.778;23.242;2022-12-19T15:08:43;97.57;;;35.90;;
8297;SDS011;4187;42.778;23.242;2022-12-19T15:11:23;71.20;;;30.50;;
8297;SDS011;4187;42.778;23.242;2022-12-19T15:14:10;35.77;;;20.13;;